Yeager Airport
KCRW : now visible

Airfield :











YOU CAN JOIN US ON...

 
LOGIN :

Register | Disclaimer

   EN    FR    IT 

 









Legend :    VFR   Marginal VFR   IFR   Intensive IFR   Very Intensive IFR
Visi :
Ceiling :
>= 8 km
>= 3000ft
5 to 8 km
1000 to 3000 ft
1500m to 5 km
500 to 1000 ft
800 to 1500m
200 to 500 ft
< 800m
< 200 ft
Symbols :   Thunderstorms  Fog  Heavy snow  Heavy precipitations  Wind > 20 kt






- Airport Elevation : 981 ft
- IATA code : CRW


KCRW - Yeager

CURRENT METAR :
  • 042203Z 00000KT 1/2SM FG BKN004 OVC030 07/07 A2991 RMK AO2 RAE00 P0000 T00720072 RVRNO

EXPIRED METARs :
  • 042154Z 00000KT 4SM -RA BR BKN004 BKN013 OVC034 07/07 A2990 RMK AO2 SLP129 DNS VLY FG P0003 T00720067
  • 042054Z 00000KT 5SM -RA BR BKN004 BKN013 OVC035 07/07 A2993 RMK AO2 SLP137 VLY FG P0001 60004 T00720072 56009
  • 042033Z 00000KT 6SM -RA BR BKN004 BKN013 OVC035 08/07 A2993 RMK AO2 CIG 001V007 VLY FG P0001 T00780072
  • 042015Z 00000KT 7SM -RA FEW004 OVC037 08/07 A2992 RMK AO2 VLY FG P0000 T00780072
  • 041954Z 34003KT 10SM -RA OVC040 08/07 A2993 RMK AO2 SLP138 VLY FG P0001 T00780072

TAF KCRW
Valid from the 04 at 21:00 until the 05 at 18:00 UTC


042058Z 0421/0518 00000KT 5SM -RA BR BKN004 OVC015
FM050000 00000KT 2SM -RA BR OVC004
FM050500 31004KT 3SM -RA BR OVC016
FM050700 30004KT P6SM OVC022
KZID FIR / North America



MET'MAP, your aeronautical weather chart ! - Copyright ORBIFLY December 2007 - Disclaimer

ORBIFLY MET'MAP TEAM :

Programming & Development : Alexandra Zaïnal
Concept & original design : Baudouin d'Aumeries
Assistance for programming : Marc-Olivier Méhu
Technical & hardware support : Manuel Goepfert

Contact : metmap@orbifly.com




SOURCES & CREDITS :

   NOAA       Earth
Advisory